createdAt,value
2023-05-05T00:01:03.207Z,6.53
2023-05-05T00:03:30.474Z,5.77
2023-05-05T00:05:58.090Z,5.63
2023-05-05T00:08:25.335Z,6.77
2023-05-05T00:10:53.767Z,6.23
2023-05-05T00:13:21.828Z,9.67
2023-05-05T00:15:50.917Z,5.83
2023-05-05T00:18:18.836Z,4.57
2023-05-05T00:20:47.575Z,8.77
2023-05-05T00:23:16.415Z,4.80
2023-05-05T00:25:43.500Z,6.20
2023-05-05T00:28:10.698Z,6.27
2023-05-05T00:30:39.243Z,6.17
2023-05-05T00:33:06.812Z,7.63
2023-05-05T00:35:34.191Z,8.77
2023-05-05T00:38:01.360Z,7.67
2023-05-05T00:40:28.579Z,6.03
2023-05-05T00:42:55.646Z,8.17
2023-05-05T00:45:22.659Z,5.93
2023-05-05T00:47:54.733Z,6.60
2023-05-05T00:50:30.241Z,8.30
2023-05-05T00:53:01.876Z,7.13
2023-05-05T00:55:30.485Z,7.73
2023-05-05T00:57:58.889Z,6.70
2023-05-05T01:00:26.688Z,6.27
2023-05-05T01:02:53.928Z,5.63
2023-05-05T01:05:23.546Z,8.47
2023-05-05T01:07:59.392Z,4.80
2023-05-05T01:10:55.331Z,5.70
2023-05-05T01:13:45.305Z,5.67
2023-05-05T01:16:22.191Z,5.83
2023-05-05T01:19:19.610Z,5.80
2023-05-05T01:21:56.584Z,6.97
2023-05-05T01:24:40.394Z,8.77
2023-05-05T01:27:51.566Z,4.90
2023-05-05T01:30:36.617Z,7.27
2023-05-05T01:33:11.520Z,6.07
2023-05-05T01:35:44.287Z,4.57
2023-05-05T01:38:22.390Z,5.47
2023-05-05T01:41:12.217Z,7.97
2023-05-05T01:43:40.135Z,6.93
2023-05-05T01:46:09.046Z,6.27
2023-05-05T01:48:37.082Z,10.23
2023-05-05T01:51:05.886Z,5.93
2023-05-05T01:53:34.436Z,5.57
2023-05-05T01:56:03.199Z,8.10
2023-05-05T01:58:32.553Z,7.03
2023-05-05T02:01:00.126Z,8.57
2023-05-05T02:03:28.690Z,8.40
2023-05-05T02:05:57.504Z,6.33
2023-05-05T02:08:26.374Z,5.17
2023-05-05T02:10:55.613Z,8.27
2023-05-05T02:13:26.203Z,5.40
2023-05-05T02:38:29.446Z,8.80
2023-05-05T02:40:58.317Z,8.23
2023-05-05T02:43:27.585Z,6.63
2023-05-05T02:45:54.753Z,8.20
2023-05-05T02:48:22.059Z,8.00
2023-05-05T02:50:49.092Z,6.23
2023-05-05T02:53:16.503Z,6.70
2023-05-05T02:55:54.406Z,7.87
2023-05-05T02:58:35.312Z,9.50
2023-05-05T03:01:28.838Z,6.67
2023-05-05T03:04:10.312Z,9.23
2023-05-05T03:06:42.028Z,5.97
2023-05-05T03:09:33.524Z,6.53
2023-05-05T03:12:08.668Z,6.57
2023-05-05T03:14:43.133Z,6.53
2023-05-05T03:17:12.697Z,10.77
2023-05-05T03:19:43.360Z,8.00
2023-05-05T03:22:10.922Z,6.93
2023-05-05T03:24:38.012Z,6.53
2023-05-05T03:27:05.163Z,6.47
2023-05-05T03:29:32.235Z,9.53
2023-05-05T03:32:01.043Z,5.90
2023-05-05T03:34:28.285Z,6.20
2023-05-05T03:36:55.524Z,10.10
2023-05-05T03:39:22.610Z,6.73
2023-05-05T03:41:49.783Z,6.97
2023-05-05T03:44:16.886Z,7.13
2023-05-05T03:46:43.927Z,6.80
2023-05-05T03:49:11.263Z,6.47
2023-05-05T03:51:38.378Z,8.17
2023-05-05T03:54:05.715Z,7.80
2023-05-05T03:56:32.856Z,9.50
2023-05-05T03:58:59.950Z,11.60
2023-05-05T04:01:29.169Z,7.43
2023-05-05T04:03:56.584Z,6.97
2023-05-05T04:06:24.368Z,6.57
2023-05-05T04:08:52.162Z,7.57
2023-05-05T04:11:19.975Z,7.60
2023-05-05T04:13:48.601Z,7.07
2023-05-05T04:16:16.579Z,6.27
2023-05-05T04:18:43.822Z,9.27
2023-05-05T04:21:10.960Z,10.40
2023-05-05T04:23:37.975Z,7.13
2023-05-05T04:26:05.021Z,9.33
2023-05-05T04:28:32.072Z,7.10
2023-05-05T04:31:01.235Z,11.60
2023-05-05T04:33:28.359Z,10.97
2023-05-05T04:35:55.468Z,8.00
2023-05-05T04:38:22.510Z,6.53
2023-05-05T04:40:49.492Z,7.90
2023-05-05T04:43:16.511Z,8.13
2023-05-05T04:45:55.816Z,8.10
2023-05-05T04:48:23.335Z,6.73
2023-05-05T04:50:51.420Z,7.63
2023-05-05T04:53:18.712Z,7.97
2023-05-05T04:55:45.863Z,7.50
2023-05-05T04:58:13.402Z,8.23
2023-05-05T05:00:40.485Z,10.20
2023-05-05T05:03:08.361Z,7.07
2023-05-05T05:05:35.553Z,8.10
2023-05-05T05:08:02.710Z,7.60
2023-05-05T05:10:29.964Z,11.20
2023-05-05T05:12:57.115Z,6.43
2023-05-05T05:15:24.514Z,11.23
2023-05-05T05:17:51.892Z,10.10
2023-05-05T05:20:19.132Z,9.13
2023-05-05T05:22:46.346Z,10.33
2023-05-05T05:25:13.582Z,8.30
2023-05-05T05:27:41.916Z,11.17
2023-05-05T05:30:09.959Z,8.07
2023-05-05T05:32:37.277Z,19.70
2023-05-05T05:35:04.894Z,10.30
2023-05-05T05:37:32.062Z,7.33
2023-05-05T05:39:59.127Z,7.53
2023-05-05T05:42:26.228Z,10.80
2023-05-05T05:44:53.566Z,8.80
2023-05-05T05:47:20.605Z,10.70
2023-05-05T05:49:47.698Z,7.97
2023-05-05T05:54:41.693Z,13.10
2023-05-05T05:57:08.869Z,11.65
2023-05-05T05:59:35.918Z,13.38
2023-05-05T06:02:03.730Z,12.15
2023-05-05T06:04:31.770Z,12.63
2023-05-05T06:06:59.397Z,13.85
2023-05-05T06:09:26.487Z,14.52
2023-05-05T06:11:53.664Z,16.83
2023-05-05T06:14:20.722Z,13.10
2023-05-05T06:16:47.917Z,12.98
2023-05-05T06:19:14.962Z,17.73
2023-05-05T06:21:42.639Z,15.13
2023-05-05T06:24:09.761Z,14.55
2023-05-05T06:26:36.719Z,16.30
2023-05-05T06:29:04.030Z,13.65
2023-05-05T06:31:31.278Z,14.27
2023-05-05T06:33:58.531Z,15.00
2023-05-05T06:36:26.382Z,15.47
2023-05-05T06:38:53.405Z,20.85
2023-05-05T06:41:20.539Z,15.63
2023-05-05T06:43:47.834Z,14.77
2023-05-05T06:46:15.044Z,14.50
2023-05-05T06:48:42.166Z,14.68
2023-05-05T06:51:10.074Z,14.57
2023-05-05T06:53:41.617Z,14.20
2023-05-05T06:56:08.705Z,16.50
2023-05-05T06:58:38.565Z,17.77
2023-05-05T07:01:05.966Z,17.70
2023-05-05T07:03:35.882Z,20.17
2023-05-05T07:06:03.695Z,16.55
2023-05-05T07:08:30.877Z,17.48
2023-05-05T07:10:58.223Z,23.85
2023-05-05T07:13:25.323Z,19.65
2023-05-05T07:15:52.428Z,15.18
2023-05-05T07:18:20.646Z,16.40
2023-05-05T07:20:48.026Z,31.10
2023-05-05T07:23:15.006Z,20.70
2023-05-05T07:25:42.207Z,23.48
2023-05-05T07:28:09.630Z,18.23
2023-05-05T07:30:36.626Z,18.30
2023-05-05T07:33:04.179Z,19.08
2023-05-05T07:35:31.816Z,18.67
2023-05-05T07:37:58.878Z,17.02
2023-05-05T07:40:26.082Z,14.65
2023-05-05T07:42:53.312Z,12.80
2023-05-05T07:45:20.883Z,14.70
2023-05-05T07:47:48.132Z,13.02
2023-05-05T07:50:16.383Z,20.25
2023-05-05T07:52:49.884Z,19.42
2023-05-05T07:55:23.482Z,12.10
2023-05-05T07:57:50.686Z,15.23
2023-05-05T08:00:19.738Z,16.17
2023-05-05T08:02:48.140Z,14.85
2023-05-05T08:05:15.500Z,17.13
2023-05-05T08:07:42.850Z,17.08
2023-05-05T08:10:12.359Z,16.75
2023-05-05T08:12:40.725Z,12.05
2023-05-05T08:15:08.944Z,35.00
2023-05-05T08:17:50.997Z,11.90
2023-05-05T08:20:20.248Z,12.00
2023-05-05T08:22:47.956Z,13.90
2023-05-05T08:25:15.635Z,11.77
2023-05-05T08:27:43.502Z,11.35
2023-05-05T08:30:12.193Z,10.63
2023-05-05T08:32:39.418Z,11.57
2023-05-05T08:37:34.676Z,12.45
2023-05-05T08:40:01.744Z,9.70
2023-05-05T08:42:38.028Z,26.92
2023-05-05T08:45:08.795Z,11.50
2023-05-05T08:47:37.513Z,9.50
2023-05-05T08:50:06.041Z,17.30
2023-05-05T08:52:45.571Z,18.63
2023-05-05T08:55:28.281Z,9.45
2023-05-05T08:57:58.054Z,8.55
2023-05-05T09:00:27.256Z,12.93
2023-05-05T09:02:58.263Z,9.52
2023-05-05T09:05:26.783Z,8.63
2023-05-05T09:07:54.231Z,10.80
2023-05-05T09:10:21.608Z,8.65
2023-05-05T09:12:51.228Z,8.88
2023-05-05T09:27:49.308Z,11.38
2023-05-05T09:30:24.068Z,8.00
2023-05-05T09:32:55.561Z,6.47
2023-05-05T09:35:23.654Z,8.60
2023-05-05T09:37:50.833Z,8.55
2023-05-05T09:40:20.064Z,9.10
2023-05-05T09:42:47.419Z,8.55
2023-05-05T09:45:17.761Z,8.07
2023-05-05T09:47:47.044Z,9.52
2023-05-05T09:50:17.219Z,7.75
2023-05-05T09:52:58.574Z,8.60
2023-05-05T09:55:26.017Z,8.23
2023-05-05T09:57:53.289Z,11.57
2023-05-05T10:00:21.157Z,9.13
2023-05-05T10:02:48.397Z,8.73
2023-05-05T10:05:18.340Z,9.77
2023-05-05T10:07:47.396Z,11.93
2023-05-05T10:10:18.488Z,6.97
2023-05-05T10:12:50.376Z,8.63
2023-05-05T10:15:18.269Z,9.02
2023-05-05T10:18:02.445Z,7.70
2023-05-05T10:20:33.790Z,7.93
2023-05-05T10:23:06.835Z,7.53
2023-05-05T10:25:42.923Z,8.10
2023-05-05T10:28:17.265Z,6.57
2023-05-05T10:30:49.373Z,7.20
2023-05-05T10:35:53.612Z,6.35
2023-05-05T10:38:22.709Z,7.25
2023-05-05T10:40:51.787Z,5.70
2023-05-05T10:43:19.433Z,5.78
2023-05-05T10:45:46.876Z,7.10
2023-05-05T10:48:25.542Z,5.10
2023-05-05T10:51:11.254Z,5.60
2023-05-05T10:54:01.086Z,5.68
2023-05-05T10:56:34.093Z,6.10
2023-05-05T10:59:01.378Z,5.60
2023-05-05T11:01:34.656Z,6.28
2023-05-05T11:04:23.954Z,5.50
2023-05-05T11:07:11.799Z,5.57
2023-05-05T11:09:56.423Z,5.97
2023-05-05T11:12:23.726Z,5.95
2023-05-05T11:15:28.657Z,4.28
2023-05-05T11:18:05.678Z,4.32
2023-05-05T11:20:39.602Z,4.63
2023-05-05T11:23:07.007Z,3.53
2023-05-05T11:25:37.384Z,4.07
2023-05-05T11:28:06.933Z,5.88
2023-05-05T11:30:34.413Z,5.05
2023-05-05T11:33:38.306Z,4.70
2023-05-05T11:36:11.621Z,4.55
2023-05-05T11:39:10.200Z,4.68
2023-05-05T11:42:12.707Z,4.67
2023-05-05T11:44:39.986Z,5.05
2023-05-05T11:47:07.001Z,6.95
2023-05-05T11:49:39.348Z,5.00
2023-05-05T11:52:09.600Z,4.15
2023-05-05T11:54:47.826Z,25.65
2023-05-05T11:57:18.017Z,11.77
2023-05-05T11:59:57.003Z,10.00
2023-05-05T12:02:27.465Z,6.32
2023-05-05T12:04:56.106Z,12.00
2023-05-05T12:07:27.546Z,6.68
2023-05-05T12:09:55.401Z,15.32
2023-05-05T12:12:36.103Z,6.85
2023-05-05T12:15:03.978Z,7.88
2023-05-05T12:17:45.035Z,6.85
2023-05-05T12:20:13.394Z,6.53
2023-05-05T12:22:41.200Z,6.90
2023-05-05T12:25:09.376Z,5.35
2023-05-05T12:27:36.577Z,8.85
2023-05-05T12:30:16.783Z,4.95
2023-05-05T12:32:45.403Z,5.45
2023-05-05T12:35:13.733Z,5.40
2023-05-05T12:37:41.672Z,6.78
2023-05-05T12:40:46.458Z,4.68
2023-05-05T12:43:27.877Z,8.15
2023-05-05T12:46:12.404Z,6.93
2023-05-05T12:48:46.342Z,3.20
2023-05-05T12:51:23.689Z,3.17
2023-05-05T12:54:06.564Z,4.75
2023-05-05T12:56:41.301Z,4.35
2023-05-05T12:59:28.609Z,4.50
2023-05-05T13:02:00.087Z,5.28
2023-05-05T13:04:30.077Z,4.80
2023-05-05T13:07:14.944Z,3.40
2023-05-05T13:09:42.458Z,3.55
2023-05-05T13:12:12.432Z,5.53
2023-05-05T13:14:40.882Z,4.93
2023-05-05T13:17:08.441Z,4.60
2023-05-05T13:19:42.659Z,3.03
2023-05-05T13:22:10.478Z,5.65
2023-05-05T13:24:49.607Z,4.53
2023-05-05T13:27:21.267Z,4.78
2023-05-05T13:29:48.718Z,3.30
2023-05-05T13:32:19.034Z,4.28
2023-05-05T13:34:46.027Z,5.15
2023-05-05T13:37:13.022Z,5.20
2023-05-05T13:39:40.085Z,5.10
2023-05-05T13:42:07.158Z,4.50
2023-05-05T13:44:35.371Z,6.55
2023-05-05T13:47:02.469Z,4.63
2023-05-05T13:49:31.810Z,5.97
2023-05-05T13:51:58.920Z,5.70
2023-05-05T13:54:26.184Z,5.35
2023-05-05T14:01:47.135Z,7.07
2023-05-05T14:06:41.204Z,9.50
2023-05-05T14:43:37.066Z,8.47
2023-05-05T14:46:06.960Z,6.87
2023-05-05T14:48:34.772Z,19.57
2023-05-05T14:51:02.023Z,5.97
2023-05-05T14:53:29.022Z,18.53
2023-05-05T14:55:56.362Z,6.33
2023-05-05T14:58:24.669Z,2.70
2023-05-05T15:00:54.826Z,2.07
2023-05-05T15:03:21.955Z,1.90
2023-05-05T15:05:49.096Z,2.97
2023-05-05T15:08:18.764Z,4.63
2023-05-05T15:10:46.481Z,12.77
2023-05-05T15:13:13.791Z,2.87
2023-05-05T15:15:41.355Z,4.57
2023-05-05T15:18:08.635Z,2.17
2023-05-05T15:20:35.642Z,3.87
2023-05-05T15:23:02.684Z,4.17
2023-05-05T15:25:29.918Z,2.57
2023-05-05T15:27:58.819Z,4.13
2023-05-05T15:30:26.866Z,2.63
2023-05-05T15:32:54.306Z,2.87
2023-05-05T15:35:21.693Z,5.47
2023-05-05T15:40:15.571Z,2.73
2023-05-05T15:42:42.604Z,3.80
2023-05-05T15:45:12.425Z,3.13
2023-05-05T15:47:39.475Z,2.13
2023-05-05T15:50:07.855Z,1.73
2023-05-05T15:52:35.226Z,3.30
2023-05-05T15:55:02.210Z,2.87
2023-05-05T15:57:29.489Z,3.67
2023-05-05T15:59:56.505Z,7.20
2023-05-05T16:02:23.627Z,2.57
2023-05-05T16:04:50.801Z,8.00
2023-05-05T16:07:17.898Z,9.27
2023-05-05T16:09:45.179Z,2.60
2023-05-05T16:12:12.258Z,5.10
2023-05-05T16:14:39.269Z,5.83
2023-05-05T16:34:16.314Z,2.67
2023-05-05T16:36:44.392Z,12.77
2023-05-05T16:39:12.007Z,15.37
2023-05-05T16:41:39.545Z,4.77
2023-05-05T16:44:06.958Z,3.37
2023-05-05T16:46:37.586Z,5.57
2023-05-05T16:49:04.785Z,8.63
2023-05-05T16:51:31.920Z,2.70
2023-05-05T16:53:58.938Z,2.83
2023-05-05T16:56:26.085Z,3.15
2023-05-05T16:58:53.128Z,3.00
2023-05-05T17:01:20.129Z,3.08
2023-05-05T17:03:47.159Z,3.23
2023-05-05T17:11:10.849Z,3.03
2023-05-05T17:13:38.613Z,3.50
2023-05-05T17:50:26.288Z,3.30
2023-05-05T17:52:53.268Z,4.82
2023-05-05T17:55:20.436Z,2.67
2023-05-05T17:57:47.534Z,2.63
2023-05-05T18:00:15.058Z,3.00
2023-05-05T18:02:42.526Z,1.90
2023-05-05T18:05:11.005Z,2.30
2023-05-05T18:07:38.827Z,2.20
2023-05-05T18:10:08.323Z,2.78
2023-05-05T18:12:35.511Z,2.30
2023-05-05T18:15:04.436Z,3.50
2023-05-05T18:17:31.589Z,2.00
2023-05-05T18:19:59.804Z,1.90
2023-05-05T18:22:26.908Z,1.90
2023-05-05T18:24:59.076Z,2.40
2023-05-05T18:27:27.496Z,2.30
2023-05-05T18:29:54.971Z,3.53
2023-05-05T18:32:22.083Z,3.03
2023-05-05T18:34:49.293Z,4.03
2023-05-05T18:37:16.422Z,4.07
2023-05-05T18:39:44.067Z,2.13
2023-05-05T18:42:13.073Z,2.30
2023-05-05T18:44:40.245Z,2.37
2023-05-05T18:47:08.023Z,2.97
2023-05-05T18:49:35.329Z,3.17
2023-05-05T18:52:02.315Z,6.70
2023-05-05T18:54:29.343Z,6.23
2023-05-05T18:56:56.486Z,3.23
2023-05-05T18:59:24.214Z,3.83
2023-05-05T19:01:51.664Z,36.93
2023-05-05T19:04:30.199Z,24.23
2023-05-05T19:06:58.484Z,9.10
2023-05-05T19:09:25.573Z,9.20
2023-05-05T19:11:52.805Z,6.23
2023-05-05T19:19:13.745Z,4.10
2023-05-05T19:21:41.074Z,4.60
2023-05-05T19:24:11.808Z,4.20
2023-05-05T19:26:39.006Z,5.30
2023-05-05T19:29:06.105Z,8.32
2023-05-05T19:31:33.224Z,6.22
2023-05-05T19:34:03.637Z,7.90
2023-05-05T19:36:34.767Z,5.50
2023-05-05T19:39:04.142Z,7.00
2023-05-05T19:41:31.531Z,4.77
2023-05-05T19:43:58.570Z,5.75
2023-05-05T19:46:26.625Z,4.88
2023-05-05T19:48:53.800Z,4.68
2023-05-05T19:51:21.097Z,4.38
2023-05-05T19:53:48.196Z,7.35
2023-05-05T19:56:15.271Z,4.75
2023-05-05T19:59:12.156Z,4.53
2023-05-05T20:01:39.423Z,5.78
2023-05-05T20:04:06.646Z,6.10
2023-05-05T20:11:28.334Z,7.93
2023-05-05T20:13:55.491Z,8.33
2023-05-05T23:23:16.169Z,7.17
2023-05-05T23:25:43.370Z,7.13
2023-05-05T23:28:10.402Z,6.27
2023-05-05T23:30:37.437Z,7.90
2023-05-05T23:33:04.845Z,7.30
2023-05-05T23:35:32.305Z,6.23
2023-05-05T23:37:59.407Z,7.43
2023-05-05T23:40:26.584Z,7.00
2023-05-05T23:42:53.740Z,6.67
